createdAt,value
2022-09-14T00:01:56.091Z,18.62
2022-09-14T00:04:24.834Z,18.71
2022-09-14T00:06:53.079Z,18.92
2022-09-14T00:09:23.932Z,19.08
2022-09-14T00:11:52.799Z,19.02
2022-09-14T00:14:21.103Z,19.19
2022-09-14T00:16:49.665Z,19.16
2022-09-14T00:19:21.821Z,19.29
2022-09-14T00:21:53.939Z,19.22
2022-09-14T00:24:22.640Z,19.37
2022-09-14T00:26:50.880Z,19.17
2022-09-14T00:29:19.309Z,19.14
2022-09-14T00:31:50.028Z,19.16
2022-09-14T00:34:20.110Z,19.36
2022-09-14T00:36:50.934Z,19.59
2022-09-14T00:39:21.007Z,19.69
2022-09-14T00:41:50.342Z,19.74
2022-09-14T00:44:59.460Z,19.75
2022-09-14T00:47:29.112Z,19.71
2022-09-14T00:50:00.778Z,19.68
2022-09-14T00:52:32.754Z,19.06
2022-09-14T00:55:04.136Z,19.14
2022-09-14T00:57:37.087Z,19.15
2022-09-14T01:00:09.194Z,19.39
2022-09-14T01:02:38.373Z,19.28
2022-09-14T01:05:12.784Z,19.17
2022-09-14T01:07:57.943Z,19.09
2022-09-14T01:10:36.999Z,19.19
2022-09-14T01:13:16.372Z,19.05
2022-09-14T01:15:54.803Z,19.06
2022-09-14T01:18:28.584Z,19.36
2022-09-14T01:21:02.067Z,19.42
2022-09-14T01:23:38.918Z,19.50
2022-09-14T01:26:45.703Z,18.96
2022-09-14T01:29:19.614Z,18.53
2022-09-14T01:31:53.079Z,18.53
2022-09-14T01:34:28.751Z,18.38
2022-09-14T01:37:05.551Z,18.14
2022-09-14T01:39:36.923Z,17.92
2022-09-14T01:42:06.596Z,17.62
2022-09-14T01:44:41.950Z,17.90
2022-09-14T01:47:14.928Z,18.09
2022-09-14T01:49:47.542Z,18.22
2022-09-14T01:52:20.674Z,17.97
2022-09-14T01:54:54.130Z,17.90
2022-09-14T01:57:26.094Z,17.77
2022-09-14T02:00:02.001Z,17.77
2022-09-14T02:02:37.883Z,17.72
2022-09-14T02:05:11.617Z,17.72
2022-09-14T02:07:39.966Z,17.48
2022-09-14T02:10:13.367Z,17.20
2022-09-14T02:12:42.500Z,17.32
2022-09-14T02:15:15.251Z,17.51
2022-09-14T02:17:44.425Z,17.10
2022-09-14T02:20:18.180Z,17.15
2022-09-14T02:22:46.485Z,17.24
2022-09-14T02:25:14.763Z,17.38
2022-09-14T02:27:42.983Z,16.99
2022-09-14T02:30:16.553Z,17.40
2022-09-14T02:32:54.459Z,17.30
2022-09-14T02:35:31.763Z,17.41
2022-09-14T02:38:06.654Z,17.32
2022-09-14T02:40:38.116Z,17.25
2022-09-14T02:43:17.948Z,17.50
2022-09-14T02:45:59.660Z,17.42
2022-09-14T02:48:34.418Z,16.93
2022-09-14T02:51:09.787Z,16.86
2022-09-14T02:53:45.259Z,17.11
2022-09-14T02:56:14.760Z,17.08
2022-09-14T02:58:44.995Z,17.40
2022-09-14T03:01:17.500Z,17.18
2022-09-14T03:03:45.782Z,17.24
2022-09-14T03:06:14.280Z,17.06
2022-09-14T03:08:43.081Z,17.09
2022-09-14T03:11:11.848Z,16.84
2022-09-14T03:13:40.220Z,16.87
2022-09-14T03:16:09.869Z,17.08
2022-09-14T03:18:40.043Z,17.00
2022-09-14T03:21:10.683Z,16.80
2022-09-14T03:23:40.069Z,16.97
2022-09-14T03:26:09.339Z,16.95
2022-09-14T03:28:37.834Z,17.02
2022-09-14T03:31:10.278Z,17.02
2022-09-14T03:33:40.738Z,16.76
2022-09-14T03:36:13.440Z,16.86
2022-09-14T03:38:45.691Z,17.12
2022-09-14T03:41:14.828Z,17.35
2022-09-14T03:43:44.090Z,17.35
2022-09-14T03:46:14.454Z,17.51
2022-09-14T03:48:44.659Z,16.97
2022-09-14T03:51:14.252Z,16.87
2022-09-14T03:53:44.382Z,17.04
2022-09-14T03:56:15.228Z,17.22
2022-09-14T03:58:43.927Z,17.30
2022-09-14T04:01:15.514Z,17.04
2022-09-14T04:03:45.860Z,17.14
2022-09-14T04:06:17.496Z,17.08
2022-09-14T04:08:47.614Z,16.96
2022-09-14T04:11:17.841Z,17.10
2022-09-14T04:13:47.242Z,17.49
2022-09-14T04:16:16.279Z,17.48
2022-09-14T04:18:46.041Z,17.65
2022-09-14T04:21:16.204Z,17.69
2022-09-14T04:24:13.329Z,17.74
2022-09-14T04:26:34.248Z,17.61
2022-09-14T04:29:02.659Z,17.66
2022-09-14T04:31:31.457Z,17.81
2022-09-14T04:34:01.228Z,17.95
2022-09-14T04:36:30.995Z,18.07
2022-09-14T04:39:03.270Z,17.83
2022-09-14T04:41:32.551Z,17.44
2022-09-14T04:44:01.077Z,16.77
2022-09-14T04:46:31.978Z,17.03
2022-09-14T04:49:01.621Z,18.01
2022-09-14T04:51:31.528Z,18.40
2022-09-14T04:54:00.966Z,18.72
2022-09-14T04:56:31.542Z,17.28
2022-09-14T04:59:01.677Z,17.06
2022-09-14T05:01:32.219Z,17.85
2022-09-14T05:04:05.021Z,18.19
2022-09-14T05:06:35.909Z,17.92
2022-09-14T05:09:08.470Z,17.77
2022-09-14T05:11:37.652Z,17.61
2022-09-14T05:14:06.293Z,17.92
2022-09-14T05:16:36.793Z,17.71
2022-09-14T05:19:09.328Z,18.02
2022-09-14T05:21:38.579Z,17.94
2022-09-14T05:24:12.387Z,18.20
2022-09-14T05:26:40.807Z,18.07
2022-09-14T05:29:13.333Z,18.26
2022-09-14T05:31:41.772Z,18.20
2022-09-14T05:34:12.004Z,18.40
2022-09-14T05:36:41.411Z,18.29
2022-09-14T05:39:10.389Z,18.30
2022-09-14T05:41:38.764Z,18.30
2022-09-14T05:44:07.632Z,18.24
2022-09-14T05:46:36.170Z,18.09
2022-09-14T05:49:04.481Z,18.19
2022-09-14T05:51:34.259Z,18.28
2022-09-14T05:54:03.050Z,18.30
2022-09-14T05:56:32.613Z,18.11
2022-09-14T05:59:00.914Z,18.32
2022-09-14T06:01:31.646Z,18.29
2022-09-14T06:04:02.156Z,18.48
2022-09-14T06:06:32.460Z,18.17
2022-09-14T06:09:02.932Z,18.18
2022-09-14T06:11:33.687Z,18.23
2022-09-14T06:14:02.065Z,18.32
2022-09-14T06:16:30.714Z,18.59
2022-09-14T06:19:00.332Z,18.35
2022-09-14T06:21:31.102Z,18.58
2022-09-14T06:24:00.235Z,18.81
2022-09-14T06:26:30.084Z,18.96
2022-09-14T06:28:58.370Z,19.06
2022-09-14T06:31:29.199Z,19.55
2022-09-14T06:33:57.637Z,19.66
2022-09-14T06:36:27.650Z,19.96
2022-09-14T06:38:56.921Z,18.95
2022-09-14T06:41:30.559Z,19.95
2022-09-14T06:44:02.548Z,19.91
2022-09-14T06:46:32.616Z,20.25
2022-09-14T06:49:03.244Z,20.57
2022-09-14T06:51:34.075Z,20.54
2022-09-14T06:54:03.316Z,20.58
2022-09-14T06:56:37.002Z,21.07
2022-09-14T06:59:06.276Z,20.56
2022-09-14T07:01:35.164Z,20.73
2022-09-14T07:04:04.222Z,19.60
2022-09-14T07:06:34.073Z,19.46
2022-09-14T07:09:05.606Z,19.08
2022-09-14T07:11:35.648Z,19.02
2022-09-14T07:14:06.380Z,19.39
2022-09-14T07:16:36.576Z,19.45
2022-09-14T07:19:07.043Z,20.06
2022-09-14T07:21:38.027Z,20.30
2022-09-14T07:24:06.630Z,20.80
2022-09-14T07:26:40.458Z,20.79
2022-09-14T07:29:11.232Z,20.41
2022-09-14T07:31:43.782Z,20.88
2022-09-14T07:34:12.299Z,20.86
2022-09-14T07:36:41.058Z,20.34
2022-09-14T07:39:12.284Z,20.80
2022-09-14T07:41:44.813Z,20.78
2022-09-14T07:44:16.160Z,20.30
2022-09-14T07:46:46.232Z,21.16
2022-09-14T07:49:16.092Z,20.93
2022-09-14T07:51:45.372Z,21.41
2022-09-14T07:54:16.326Z,21.53
2022-09-14T07:56:46.820Z,21.51
2022-09-14T07:59:36.010Z,21.55
2022-09-14T08:02:07.341Z,21.87
2022-09-14T08:04:36.199Z,21.65
2022-09-14T08:07:04.637Z,22.12
2022-09-14T08:09:33.317Z,21.45
2022-09-14T08:12:05.737Z,21.97
2022-09-14T08:14:34.069Z,21.98
2022-09-14T08:17:02.400Z,21.77
2022-09-14T08:19:30.749Z,21.91
2022-09-14T08:21:58.984Z,21.98
2022-09-14T08:24:27.391Z,22.32
2022-09-14T08:26:55.612Z,22.07
2022-09-14T08:29:25.164Z,22.39
2022-09-14T08:31:53.607Z,22.34
2022-09-14T08:34:22.113Z,22.42
2022-09-14T08:36:50.349Z,22.29
2022-09-14T08:39:19.505Z,22.31
2022-09-14T08:41:54.732Z,22.49
2022-09-14T08:44:29.155Z,22.84
2022-09-14T08:47:02.233Z,22.86
2022-09-14T08:49:42.242Z,22.57
2022-09-14T08:52:23.688Z,22.56
2022-09-14T08:54:55.025Z,22.57
2022-09-14T08:57:28.992Z,22.76
2022-09-14T09:00:06.876Z,22.86
2022-09-14T09:02:51.332Z,23.54
2022-09-14T09:05:32.770Z,23.57
2022-09-14T09:08:07.924Z,23.66
2022-09-14T09:10:39.721Z,23.66
2022-09-14T09:13:13.363Z,23.48
2022-09-14T09:15:48.804Z,23.27
2022-09-14T09:18:20.917Z,23.83
2022-09-14T09:20:52.463Z,24.48
2022-09-14T09:23:22.949Z,23.41
2022-09-14T09:25:58.737Z,23.54
2022-09-14T09:28:29.465Z,24.06
2022-09-14T09:31:05.010Z,24.20
2022-09-14T09:33:53.370Z,23.90
2022-09-14T09:36:24.580Z,23.39
2022-09-14T09:38:52.872Z,23.72
2022-09-14T09:41:24.795Z,23.77
2022-09-14T09:44:06.790Z,24.42
2022-09-14T09:46:39.429Z,24.58
2022-09-14T09:49:19.474Z,24.69
2022-09-14T09:51:51.577Z,24.68
2022-09-14T09:54:26.025Z,24.60
2022-09-14T09:56:57.536Z,24.61
2022-09-14T09:59:35.270Z,24.40
2022-09-14T10:02:24.729Z,24.67
2022-09-14T10:05:04.547Z,24.38
2022-09-14T10:07:34.932Z,25.13
2022-09-14T10:10:08.494Z,24.71
2022-09-14T10:12:39.325Z,24.51
2022-09-14T10:15:16.573Z,25.30
2022-09-14T10:18:08.878Z,25.26
2022-09-14T10:20:38.753Z,24.99
2022-09-14T10:23:24.547Z,25.10
2022-09-14T10:25:54.983Z,25.47
2022-09-14T10:28:27.313Z,25.32
2022-09-14T10:31:00.683Z,25.44
2022-09-14T10:33:30.953Z,25.86
2022-09-14T10:36:08.947Z,25.27
2022-09-14T10:38:42.646Z,25.80
2022-09-14T10:41:20.137Z,25.81
2022-09-14T10:44:25.761Z,26.23
2022-09-14T10:47:11.339Z,25.64
2022-09-14T10:49:56.469Z,25.64
2022-09-14T10:52:35.525Z,25.55
2022-09-14T10:55:20.484Z,25.63
2022-09-14T10:58:00.112Z,26.16
2022-09-14T11:00:32.218Z,25.82
2022-09-14T11:03:16.614Z,26.42
2022-09-14T11:05:56.580Z,25.94
2022-09-14T11:08:32.672Z,25.22
2022-09-14T11:11:20.172Z,25.91
2022-09-14T11:14:04.126Z,26.30
2022-09-14T11:16:52.954Z,26.21
2022-09-14T11:19:32.639Z,26.01
2022-09-14T11:22:10.526Z,26.26
2022-09-14T11:24:44.145Z,26.10
2022-09-14T11:27:20.691Z,27.09
2022-09-14T11:29:53.252Z,26.34
2022-09-14T11:32:25.668Z,26.38
2022-09-14T11:34:57.975Z,25.69
2022-09-14T11:37:33.919Z,26.33
2022-09-14T11:40:10.226Z,27.06
2022-09-14T11:42:44.750Z,26.98
2022-09-14T11:45:19.937Z,27.04
2022-09-14T11:47:56.550Z,26.80
2022-09-14T11:50:28.489Z,26.84
2022-09-14T11:53:04.725Z,26.19
2022-09-14T11:55:33.540Z,26.35
2022-09-14T11:58:04.819Z,26.37
2022-09-14T12:00:59.677Z,26.72
2022-09-14T12:04:06.234Z,26.28
2022-09-14T12:07:01.688Z,26.14
2022-09-14T12:09:43.589Z,25.86
2022-09-14T12:12:39.904Z,26.03
2022-09-14T12:15:21.341Z,26.27
2022-09-14T12:17:50.415Z,26.09
2022-09-14T12:20:52.726Z,25.37
2022-09-14T12:23:28.614Z,25.33
2022-09-14T12:26:03.639Z,25.15
2022-09-14T12:28:47.948Z,24.91
2022-09-14T12:31:32.947Z,24.92
2022-09-14T12:34:19.289Z,24.46
2022-09-14T12:37:19.220Z,24.66
2022-09-14T12:40:36.410Z,24.55
2022-09-14T12:43:49.790Z,23.92
2022-09-14T12:46:40.811Z,24.04
2022-09-14T12:49:28.288Z,23.93
2022-09-14T12:51:58.717Z,23.78
2022-09-14T12:54:39.204Z,23.26
2022-09-14T12:57:20.684Z,23.00
2022-09-14T12:59:55.534Z,22.68
2022-09-14T13:02:50.361Z,21.09
2022-09-14T13:05:23.708Z,20.25
2022-09-14T13:07:52.799Z,19.80
2022-09-14T13:10:28.039Z,19.16
2022-09-14T13:12:58.952Z,19.04
2022-09-14T13:15:31.012Z,20.55
2022-09-14T13:18:02.784Z,19.79
2022-09-14T13:20:32.433Z,20.18
2022-09-14T13:23:01.011Z,20.35
2022-09-14T13:25:36.026Z,20.41
2022-09-14T13:28:06.835Z,20.65
2022-09-14T13:30:36.498Z,20.39
2022-09-14T13:33:06.257Z,20.86
2022-09-14T13:35:37.063Z,20.82
2022-09-14T13:38:15.113Z,20.81
2022-09-14T13:40:43.606Z,20.77
2022-09-14T13:43:12.305Z,20.66
2022-09-14T13:45:42.186Z,20.57
2022-09-14T13:48:15.161Z,20.29
2022-09-14T13:50:46.055Z,20.54
2022-09-14T13:53:38.416Z,20.36
2022-09-14T13:56:18.638Z,20.50
2022-09-14T13:58:47.114Z,20.56
2022-09-14T14:01:24.408Z,20.56
2022-09-14T14:03:53.985Z,20.76
2022-09-14T14:06:26.658Z,20.77
2022-09-14T14:08:56.912Z,21.07
2022-09-14T14:11:42.769Z,21.25
2022-09-14T14:14:11.898Z,21.16
2022-09-14T14:16:40.046Z,21.00
2022-09-14T14:19:27.368Z,21.38
2022-09-14T14:22:12.355Z,21.19
2022-09-14T14:24:55.995Z,20.89
2022-09-14T14:27:31.453Z,20.85
2022-09-14T14:29:59.692Z,20.82
2022-09-14T14:32:27.982Z,20.64
2022-09-14T14:34:57.319Z,20.82
2022-09-14T14:37:25.315Z,20.54
2022-09-14T14:39:53.365Z,20.78
2022-09-14T14:42:21.394Z,20.45
2022-09-14T14:44:49.428Z,20.48
2022-09-14T14:47:21.671Z,20.69
2022-09-14T14:49:49.703Z,20.36
2022-09-14T14:52:19.137Z,20.37
2022-09-14T14:54:47.165Z,20.30
2022-09-14T14:57:15.145Z,20.36
2022-09-14T14:59:43.122Z,20.44
2022-09-14T15:02:11.105Z,20.09
2022-09-14T15:04:39.128Z,20.03
2022-09-14T15:07:07.086Z,20.46
2022-09-14T15:09:36.764Z,20.27
2022-09-14T15:12:04.920Z,20.21
2022-09-14T15:14:32.910Z,20.29
2022-09-14T15:17:02.237Z,20.26
2022-09-14T15:19:30.191Z,20.20
2022-09-14T15:22:01.386Z,19.90
2022-09-14T15:24:30.367Z,20.07
2022-09-14T15:26:59.748Z,20.20
2022-09-14T15:29:27.786Z,19.98
2022-09-14T15:31:55.817Z,20.21
2022-09-14T15:34:23.878Z,20.02
2022-09-14T15:36:52.638Z,20.08
2022-09-14T15:39:22.457Z,20.51
2022-09-14T15:41:50.838Z,20.63
2022-09-14T15:44:20.440Z,20.83
2022-09-14T15:46:48.856Z,20.25
2022-09-14T15:49:18.527Z,20.71
2022-09-14T15:51:47.741Z,20.82
2022-09-14T15:54:15.878Z,20.46
2022-09-14T15:56:43.895Z,20.77
2022-09-14T15:59:11.897Z,20.87
2022-09-14T16:01:43.446Z,21.03
2022-09-14T16:04:12.027Z,20.45
2022-09-14T16:06:40.194Z,20.25
2022-09-14T16:09:09.121Z,20.54
2022-09-14T16:11:37.791Z,21.03
2022-09-14T16:14:06.547Z,20.97
2022-09-14T16:16:36.103Z,20.81
2022-09-14T16:19:06.588Z,20.58
2022-09-14T16:21:37.439Z,20.06
2022-09-14T16:24:08.173Z,20.46
2022-09-14T16:26:37.257Z,20.03
2022-09-14T16:29:05.550Z,20.18
2022-09-14T16:31:34.816Z,20.62
2022-09-14T16:34:04.447Z,20.37
2022-09-14T16:36:35.316Z,20.19
2022-09-14T16:39:04.946Z,19.99
2022-09-14T16:41:36.385Z,19.78
2022-09-14T16:44:04.824Z,19.61
2022-09-14T16:46:33.434Z,19.83
2022-09-14T16:49:01.468Z,19.92
2022-09-14T16:51:30.655Z,19.71
2022-09-14T16:54:00.644Z,19.69
2022-09-14T16:56:30.874Z,20.23
2022-09-14T16:58:59.514Z,19.99
2022-09-14T17:01:28.531Z,20.32
2022-09-14T17:03:57.966Z,20.42
2022-09-14T17:06:26.858Z,20.00
2022-09-14T17:08:55.703Z,19.88
2022-09-14T17:11:25.211Z,19.93
2022-09-14T17:13:53.187Z,19.82
2022-09-14T17:16:21.974Z,19.67
2022-09-14T17:18:51.152Z,19.52
2022-09-14T17:21:20.558Z,19.49
2022-09-14T17:23:48.661Z,19.58
2022-09-14T17:26:19.809Z,19.46
2022-09-14T17:28:50.438Z,19.46
2022-09-14T17:31:19.750Z,19.49
2022-09-14T17:33:47.832Z,19.38
2022-09-14T17:36:16.511Z,19.56
2022-09-14T17:38:45.362Z,19.21
2022-09-14T17:41:15.093Z,19.13
2022-09-14T17:43:43.580Z,19.17
2022-09-14T17:46:14.199Z,19.54
2022-09-14T17:48:42.884Z,19.69
2022-09-14T17:51:13.954Z,19.60
2022-09-14T17:53:45.138Z,19.72
2022-09-14T17:56:13.963Z,19.82
2022-09-14T17:58:43.703Z,19.61
2022-09-14T18:01:14.332Z,19.03
2022-09-14T18:03:49.909Z,18.87
2022-09-14T18:06:18.045Z,18.87
2022-09-14T18:08:55.695Z,18.87
2022-09-14T18:11:23.900Z,18.74
2022-09-14T18:13:52.174Z,18.89
2022-09-14T18:16:22.584Z,19.29
2022-09-14T18:18:50.889Z,18.93
2022-09-14T18:21:19.754Z,19.27
2022-09-14T18:23:51.911Z,19.03
2022-09-14T18:26:20.755Z,19.04
2022-09-14T18:28:50.923Z,19.06
2022-09-14T18:31:22.542Z,19.24
2022-09-14T18:33:52.927Z,19.21
2022-09-14T18:36:21.448Z,19.35
2022-09-14T18:38:49.806Z,19.01
2022-09-14T18:41:20.267Z,19.23
2022-09-14T18:43:49.669Z,18.94
2022-09-14T18:46:18.393Z,18.60
2022-09-14T18:48:53.026Z,18.72
2022-09-14T18:51:21.546Z,19.11
2022-09-14T18:53:49.687Z,19.23
2022-09-14T18:56:19.095Z,19.34
2022-09-14T18:58:48.777Z,19.85
2022-09-14T19:01:19.787Z,19.61
2022-09-14T19:03:48.746Z,19.75
2022-09-14T19:06:18.888Z,18.95
2022-09-14T19:08:47.273Z,18.69
2022-09-14T19:11:16.557Z,18.57
2022-09-14T19:13:45.149Z,18.38
2022-09-14T19:16:14.195Z,18.37
2022-09-14T19:18:43.083Z,18.35
2022-09-14T19:21:12.972Z,18.37
2022-09-14T19:23:42.981Z,18.33
2022-09-14T19:26:12.508Z,18.39
2022-09-14T19:28:40.488Z,18.66
2022-09-14T19:31:09.139Z,18.50
2022-09-14T19:33:39.239Z,18.49
2022-09-14T19:36:11.002Z,18.52
2022-09-14T19:38:39.028Z,18.43
2022-09-14T19:41:08.675Z,18.48
2022-09-14T19:43:39.364Z,18.73
2022-09-14T19:46:08.317Z,18.72
2022-09-14T19:48:36.595Z,18.54
2022-09-14T19:51:05.548Z,18.21
2022-09-14T19:53:35.004Z,18.28
2022-09-14T19:56:04.305Z,18.37
2022-09-14T19:58:36.475Z,18.28
2022-09-14T20:01:05.578Z,18.32
2022-09-14T20:03:33.880Z,17.98
2022-09-14T20:06:02.520Z,17.89
2022-09-14T20:08:31.980Z,18.10
2022-09-14T20:11:04.166Z,17.73
2022-09-14T20:13:32.440Z,17.77
2022-09-14T20:16:12.551Z,17.99
2022-09-14T20:18:41.062Z,18.17
2022-09-14T20:21:09.931Z,18.21
2022-09-14T20:23:48.629Z,18.46
2022-09-14T20:26:26.794Z,17.98
2022-09-14T20:28:55.112Z,17.91
2022-09-14T20:31:24.734Z,18.01
2022-09-14T20:33:53.299Z,18.18
2022-09-14T20:36:22.314Z,17.96
2022-09-14T20:38:51.519Z,18.27
2022-09-14T20:41:19.724Z,17.90
2022-09-14T20:43:48.901Z,17.73
2022-09-14T20:46:18.439Z,17.79
2022-09-14T20:48:48.151Z,17.62
2022-09-14T20:51:20.557Z,17.44
2022-09-14T20:53:49.304Z,17.55
2022-09-14T20:56:18.931Z,17.45
2022-09-14T20:58:47.605Z,17.44
2022-09-14T21:01:16.547Z,17.61
2022-09-14T21:03:45.375Z,17.46
2022-09-14T21:06:15.938Z,17.79
2022-09-14T21:08:44.101Z,17.50
2022-09-14T21:11:13.597Z,17.47
2022-09-14T21:13:42.079Z,17.77
2022-09-14T21:16:10.895Z,17.68
2022-09-14T21:18:39.056Z,17.94
2022-09-14T21:21:07.543Z,17.99
2022-09-14T21:23:36.968Z,18.18
2022-09-14T21:26:05.621Z,18.03
2022-09-14T21:28:34.198Z,18.21
2022-09-14T21:31:06.439Z,17.83
2022-09-14T21:33:35.202Z,18.10
2022-09-14T21:36:04.357Z,17.81
2022-09-14T21:38:32.662Z,17.76
2022-09-14T21:41:02.259Z,17.81
2022-09-14T21:43:30.458Z,17.42
2022-09-14T21:45:59.066Z,17.41
2022-09-14T21:48:28.606Z,17.79
2022-09-14T21:51:03.454Z,18.01
2022-09-14T21:53:31.475Z,17.51
2022-09-14T21:55:59.489Z,17.36
2022-09-14T21:58:28.769Z,17.25
2022-09-14T22:02:36.848Z,17.67
2022-09-14T22:05:05.859Z,17.33
2022-09-14T22:07:35.415Z,17.43
2022-09-14T22:10:03.406Z,17.45
2022-09-14T22:12:31.876Z,17.31
2022-09-14T22:14:59.814Z,17.65
2022-09-14T22:17:29.815Z,17.53
2022-09-14T22:20:01.795Z,17.81
2022-09-14T22:22:29.782Z,18.06
2022-09-14T22:24:57.743Z,17.96
2022-09-14T22:27:25.724Z,17.65
2022-09-14T22:29:53.719Z,17.64
2022-09-14T22:32:22.601Z,17.49
2022-09-14T22:34:51.653Z,17.84
2022-09-14T22:37:20.978Z,17.71
2022-09-14T22:39:48.972Z,17.62
2022-09-14T22:42:17.016Z,17.62
2022-09-14T22:44:45.002Z,17.35
2022-09-14T22:47:13.018Z,17.50
2022-09-14T22:49:41.000Z,17.58
2022-09-14T22:52:08.970Z,17.79
2022-09-14T22:54:38.252Z,17.51
2022-09-14T22:57:06.327Z,17.49
2022-09-14T22:59:34.387Z,17.46
2022-09-14T23:02:02.334Z,17.36
2022-09-14T23:04:31.084Z,17.31
2022-09-14T23:07:00.026Z,17.48
2022-09-14T23:09:28.363Z,17.48
2022-09-14T23:11:57.812Z,17.52
2022-09-14T23:14:25.972Z,17.74
2022-09-14T23:16:53.970Z,17.91
2022-09-14T23:19:21.973Z,18.01
2022-09-14T23:21:50.014Z,18.25
2022-09-14T23:24:17.983Z,18.36
2022-09-14T23:26:45.974Z,18.30
2022-09-14T23:29:16.229Z,18.26
2022-09-14T23:31:44.475Z,18.23
2022-09-14T23:34:12.815Z,18.38
2022-09-14T23:36:40.897Z,18.03
2022-09-14T23:39:08.853Z,18.36
2022-09-14T23:41:36.884Z,18.34
2022-09-14T23:44:04.824Z,18.29
2022-09-14T23:46:34.151Z,18.12
2022-09-14T23:49:02.139Z,18.09
2022-09-14T23:51:30.258Z,17.88
2022-09-14T23:54:00.426Z,17.74
2022-09-14T23:56:28.399Z,17.90
2022-09-14T23:58:56.385Z,17.69
